createdAt,value
2018-08-20T00:00:31.294Z,55.95
2018-08-20T00:01:31.355Z,55.94
2018-08-20T00:02:31.284Z,55.75
2018-08-20T00:03:31.291Z,56.16
2018-08-20T00:04:31.327Z,55.85
2018-08-20T00:05:31.312Z,55.97
2018-08-20T00:06:31.304Z,56.09
2018-08-20T00:07:31.315Z,56.87
2018-08-20T00:08:31.476Z,56.47
2018-08-20T00:09:31.340Z,56.75
2018-08-20T00:10:31.306Z,57.67
2018-08-20T00:11:31.434Z,57.36
2018-08-20T00:12:31.283Z,57.5
2018-08-20T00:13:31.324Z,57.55
2018-08-20T00:14:31.305Z,57.71
2018-08-20T00:15:31.338Z,57.69
2018-08-20T00:16:31.369Z,58.09
2018-08-20T00:17:31.314Z,58.21
2018-08-20T00:18:31.359Z,57.91
2018-08-20T00:19:31.329Z,57.41
2018-08-20T00:20:31.326Z,58.35
2018-08-20T00:21:31.639Z,58.73
2018-08-20T00:22:31.403Z,58.85
2018-08-20T00:23:31.400Z,58.65
2018-08-20T00:24:31.302Z,58.83
2018-08-20T00:25:31.433Z,58.66
2018-08-20T00:26:31.283Z,58.93
2018-08-20T00:27:31.339Z,58.45
2018-08-20T00:28:31.297Z,58.18
2018-08-20T00:29:31.315Z,58.33
2018-08-20T00:30:31.367Z,58
2018-08-20T00:31:31.392Z,57.56
2018-08-20T00:32:31.328Z,57.9
2018-08-20T00:33:31.421Z,58.65
2018-08-20T00:34:31.307Z,59.19
2018-08-20T00:35:31.380Z,59.3
2018-08-20T00:36:31.299Z,59.12
2018-08-20T00:37:31.297Z,59.25
2018-08-20T00:38:31.327Z,59.26
2018-08-20T00:39:31.365Z,59.36
2018-08-20T00:40:31.313Z,59.34
2018-08-20T00:41:31.551Z,59.51
2018-08-20T00:42:31.507Z,59.65
2018-08-20T00:43:31.403Z,59.98
2018-08-20T00:44:31.304Z,59.37
2018-08-20T00:45:31.342Z,59.08
2018-08-20T00:46:31.324Z,58.64
2018-08-20T00:47:31.977Z,59.02
2018-08-20T00:48:31.286Z,58.84
2018-08-20T00:49:31.390Z,59.45
2018-08-20T00:50:31.508Z,58.29
2018-08-20T00:51:31.335Z,58.24
2018-08-20T00:52:31.357Z,58.13
2018-08-20T00:53:31.321Z,58.63
2018-08-20T00:54:31.289Z,59.5
2018-08-20T00:55:31.429Z,59.15
2018-08-20T00:56:31.314Z,59.61
2018-08-20T00:57:31.298Z,59.24
2018-08-20T00:58:31.304Z,58.77
2018-08-20T00:59:32.050Z,59.1
2018-08-20T01:00:31.674Z,59.51
2018-08-20T01:01:31.287Z,59.13
2018-08-20T01:02:31.284Z,59.48
2018-08-20T01:03:31.292Z,59.92
2018-08-20T01:04:31.329Z,59.36
2018-08-20T01:05:31.354Z,60.02
2018-08-20T01:06:31.301Z,59.81
2018-08-20T01:07:31.273Z,59.25
2018-08-20T01:08:31.278Z,59.24
2018-08-20T01:09:31.280Z,59.17
2018-08-20T01:10:31.323Z,59.73
2018-08-20T01:11:31.269Z,60.11
2018-08-20T01:12:31.272Z,60.32
2018-08-20T01:13:31.297Z,60.46
2018-08-20T01:14:31.274Z,60.18
2018-08-20T01:15:31.270Z,60.25
2018-08-20T01:16:31.315Z,59.44
2018-08-20T01:17:31.390Z,60.29
2018-08-20T01:18:31.336Z,60.35
2018-08-20T01:19:31.394Z,60.75
2018-08-20T01:20:31.321Z,60.09
2018-08-20T01:21:31.266Z,59.64
2018-08-20T01:22:31.478Z,60.45
2018-08-20T01:23:31.324Z,60.39
2018-08-20T01:24:31.456Z,60.55
2018-08-20T01:25:31.994Z,60.3
2018-08-20T01:26:31.323Z,60.29
2018-08-20T01:27:31.653Z,60.44
2018-08-20T01:28:31.315Z,60.09
2018-08-20T01:29:31.345Z,60.69
2018-08-20T01:30:31.470Z,60.27
2018-08-20T01:31:31.436Z,60.62
2018-08-20T01:32:31.331Z,61.09
2018-08-20T01:33:31.435Z,61.19
2018-08-20T01:34:31.442Z,60.84
2018-08-20T01:35:31.445Z,60.74
2018-08-20T01:36:31.435Z,60.24
2018-08-20T01:37:31.319Z,60.31
2018-08-20T01:38:31.281Z,60.24
2018-08-20T01:39:31.393Z,60.99
2018-08-20T01:40:31.343Z,61.03
2018-08-20T01:41:31.264Z,61.25
2018-08-20T01:42:31.336Z,61.03
2018-08-20T01:43:31.277Z,61.17
2018-08-20T01:44:31.575Z,61.37
2018-08-20T01:45:31.287Z,61.46
2018-08-20T01:46:31.298Z,61.44
2018-08-20T01:47:31.282Z,61.28
2018-08-20T01:48:31.338Z,61.17
2018-08-20T01:49:31.287Z,61.57
2018-08-20T01:50:31.301Z,61.4
2018-08-20T01:51:31.516Z,61.32
2018-08-20T01:52:31.328Z,60.86
2018-08-20T01:53:31.344Z,61.17
2018-08-20T01:54:31.320Z,60.91
2018-08-20T01:55:31.324Z,61.11
2018-08-20T01:56:31.343Z,61.89
2018-08-20T01:57:31.558Z,62.11
2018-08-20T01:58:32.192Z,61.42
2018-08-20T01:59:31.507Z,61.37
2018-08-20T02:00:31.410Z,61.81
2018-08-20T02:01:31.299Z,61.76
2018-08-20T02:02:31.430Z,61.74
2018-08-20T02:03:31.445Z,61.88
2018-08-20T02:04:31.424Z,62.19
2018-08-20T02:05:31.414Z,61.75
2018-08-20T02:06:31.425Z,61.84
2018-08-20T02:07:31.530Z,61.92
2018-08-20T02:08:31.396Z,62.18
2018-08-20T02:09:31.704Z,61.99
2018-08-20T02:10:31.301Z,61.35
2018-08-20T02:11:31.376Z,61.09
2018-08-20T02:12:31.369Z,61.14
2018-08-20T02:13:31.466Z,61.25
2018-08-20T02:14:31.381Z,61.23
2018-08-20T02:15:31.363Z,61.76
2018-08-20T02:16:31.316Z,62.13
2018-08-20T02:17:31.444Z,61.82
2018-08-20T02:18:31.806Z,61.86
2018-08-20T02:19:31.315Z,61.9
2018-08-20T02:20:31.440Z,62
2018-08-20T02:21:31.326Z,61.82
2018-08-20T02:22:31.357Z,61.59
2018-08-20T02:23:31.242Z,62.38
2018-08-20T02:24:31.330Z,62.55
2018-08-20T02:25:31.272Z,62.2
2018-08-20T02:26:31.486Z,61.96
2018-08-20T02:27:31.670Z,61.88
2018-08-20T02:28:31.309Z,61.93
2018-08-20T02:29:31.376Z,61.5
2018-08-20T02:30:31.274Z,61.91
2018-08-20T02:31:31.261Z,62.11
2018-08-20T02:32:31.341Z,61.41
2018-08-20T02:33:31.593Z,61.98
2018-08-20T02:34:31.374Z,62.41
2018-08-20T02:35:31.326Z,62.17
2018-08-20T02:36:31.732Z,62.26
2018-08-20T02:37:31.303Z,61.53
2018-08-20T02:38:31.318Z,61.62
2018-08-20T02:39:31.246Z,61.91
2018-08-20T02:40:31.983Z,61.69
2018-08-20T02:41:31.252Z,61.79
2018-08-20T02:42:31.405Z,62.33
2018-08-20T02:43:31.269Z,62.06
2018-08-20T02:44:31.331Z,62.11
2018-08-20T02:45:31.305Z,62.5
2018-08-20T02:46:31.344Z,62.69
2018-08-20T02:47:31.319Z,62.42
2018-08-20T02:48:31.251Z,62.9
2018-08-20T02:49:31.300Z,62.89
2018-08-20T02:50:31.300Z,62.55
2018-08-20T02:51:31.255Z,62.33
2018-08-20T02:52:31.367Z,62.85
2018-08-20T02:53:31.271Z,62.96
2018-08-20T02:54:31.240Z,63.04
2018-08-20T02:55:31.250Z,62.58
2018-08-20T02:56:31.254Z,62.7
2018-08-20T02:57:31.270Z,62.78
2018-08-20T02:58:31.276Z,63.3
2018-08-20T02:59:31.233Z,63.07
2018-08-20T03:00:31.338Z,62.58
2018-08-20T03:01:31.243Z,62.26
2018-08-20T03:02:31.308Z,62.32
2018-08-20T03:03:31.455Z,62.75
2018-08-20T03:04:31.326Z,62.6
2018-08-20T03:05:31.317Z,62.51
2018-08-20T03:06:31.293Z,62.88
2018-08-20T03:07:31.345Z,63.15
2018-08-20T03:08:31.261Z,63.72
2018-08-20T03:09:31.361Z,63.47
2018-08-20T03:10:31.253Z,63.65
2018-08-20T03:11:31.657Z,62.89
2018-08-20T03:12:31.300Z,63.37
2018-08-20T03:13:31.492Z,63.61
2018-08-20T03:14:31.404Z,63.9
2018-08-20T03:15:31.272Z,63.19
2018-08-20T03:16:31.336Z,62.94
2018-08-20T03:17:31.380Z,62.96
2018-08-20T03:18:31.271Z,62.78
2018-08-20T03:19:31.454Z,62.75
2018-08-20T03:20:31.340Z,62.72
2018-08-20T03:21:31.432Z,63.06
2018-08-20T03:22:31.954Z,63
2018-08-20T03:23:31.342Z,63.65
2018-08-20T03:24:31.388Z,64.13
2018-08-20T03:25:31.303Z,63.1
2018-08-20T03:26:31.260Z,64.32
2018-08-20T03:27:31.282Z,63.99
2018-08-20T03:28:31.398Z,63.78
2018-08-20T03:29:31.280Z,63.22
2018-08-20T03:30:31.459Z,63.47
2018-08-20T03:31:31.684Z,64.21
2018-08-20T03:32:31.458Z,64.58
2018-08-20T03:33:31.379Z,64.82
2018-08-20T03:34:31.292Z,64.9
2018-08-20T03:35:31.341Z,63.95
2018-08-20T03:36:31.332Z,63.99
2018-08-20T03:37:31.283Z,64.94
2018-08-20T03:38:31.273Z,64.96
2018-08-20T03:39:31.262Z,64.78
2018-08-20T03:40:31.260Z,64.84
2018-08-20T03:41:31.572Z,65.07
2018-08-20T03:42:31.296Z,64.31
2018-08-20T03:43:31.449Z,64.46
2018-08-20T03:44:31.457Z,64.06
2018-08-20T03:45:31.359Z,64.57
2018-08-20T03:46:31.312Z,63.92
2018-08-20T03:47:31.267Z,64.69
2018-08-20T03:48:31.427Z,65.21
2018-08-20T03:49:31.492Z,65.19
2018-08-20T03:50:31.967Z,65.35
2018-08-20T03:51:31.536Z,65.38
2018-08-20T03:52:31.391Z,64.58
2018-08-20T03:53:31.276Z,65.16
2018-08-20T03:54:31.290Z,64.95
2018-08-20T03:55:31.277Z,65.49
2018-08-20T03:56:31.281Z,65.61
2018-08-20T03:57:31.238Z,65.2
2018-08-20T03:58:31.295Z,65.11
2018-08-20T03:59:31.260Z,64.92
2018-08-20T04:00:31.397Z,64.71
2018-08-20T04:01:31.271Z,64.93
2018-08-20T04:02:31.231Z,64.99
2018-08-20T04:03:31.293Z,65.45
2018-08-20T04:04:31.257Z,65.72
2018-08-20T04:05:31.255Z,65.26
2018-08-20T04:06:31.313Z,65.32
2018-08-20T04:07:31.243Z,64.99
2018-08-20T04:08:31.228Z,65.68
2018-08-20T04:09:31.264Z,65.71
2018-08-20T04:10:31.283Z,65.45
2018-08-20T04:11:31.226Z,65.79
2018-08-20T04:12:31.232Z,65.55
2018-08-20T04:13:31.264Z,65.61
2018-08-20T04:14:31.261Z,65.69
2018-08-20T04:15:31.231Z,65.06
2018-08-20T04:16:31.281Z,65.7
2018-08-20T04:17:31.320Z,65.2
2018-08-20T04:18:31.350Z,65.64
2018-08-20T04:19:31.249Z,65.22
2018-08-20T04:20:31.303Z,65.01
2018-08-20T04:21:31.231Z,64.67
2018-08-20T04:22:31.222Z,65.52
2018-08-20T04:23:31.293Z,65.34
2018-08-20T04:24:31.215Z,65.03
2018-08-20T04:25:31.322Z,65.31
2018-08-20T04:26:31.252Z,64.66
2018-08-20T04:27:31.568Z,64.85
2018-08-20T04:28:31.243Z,64.49
2018-08-20T04:29:31.257Z,64.46
2018-08-20T04:30:31.254Z,64.54
2018-08-20T04:31:31.241Z,64.79
2018-08-20T04:32:31.528Z,65.02
2018-08-20T04:33:31.235Z,64.87
2018-08-20T04:34:31.268Z,64.91
2018-08-20T04:35:31.239Z,64.83
2018-08-20T04:36:31.270Z,65.74
2018-08-20T04:37:31.356Z,65.77
2018-08-20T04:38:31.313Z,65.74
2018-08-20T04:39:31.242Z,65.54
2018-08-20T04:40:31.257Z,65.61
2018-08-20T04:41:31.400Z,65.52
2018-08-20T04:42:31.244Z,65.32
2018-08-20T04:43:31.307Z,64.9
2018-08-20T04:44:31.263Z,64.74
2018-08-20T04:45:31.369Z,65.15
2018-08-20T04:46:31.280Z,64.4
2018-08-20T04:47:31.291Z,64.75
2018-08-20T04:48:31.426Z,64.85
2018-08-20T04:49:31.260Z,64.36
2018-08-20T04:50:31.810Z,65.03
2018-08-20T04:51:31.551Z,65.29
2018-08-20T04:52:31.449Z,64.64
2018-08-20T04:53:31.284Z,64.91
2018-08-20T04:54:31.374Z,64.72
2018-08-20T04:55:31.282Z,64.75
2018-08-20T04:56:31.307Z,65.02
2018-08-20T04:57:31.252Z,65.03
2018-08-20T04:58:31.302Z,64.36
2018-08-20T04:59:31.232Z,64.2
2018-08-20T05:00:31.253Z,64.74
2018-08-20T05:01:31.408Z,64.03
2018-08-20T05:02:31.247Z,64.23
2018-08-20T05:03:31.431Z,64.78
2018-08-20T05:04:31.407Z,64.71
2018-08-20T05:05:31.299Z,64.92
2018-08-20T05:06:31.292Z,64.57
2018-08-20T05:07:31.224Z,64.54
2018-08-20T05:08:31.433Z,64.58
2018-08-20T05:09:31.314Z,64.52
2018-08-20T05:10:31.336Z,64.65
2018-08-20T05:11:31.380Z,64.86
2018-08-20T05:12:31.323Z,64.72
2018-08-20T05:13:31.214Z,64.82
2018-08-20T05:14:31.296Z,64.8
2018-08-20T05:15:31.242Z,64.77
2018-08-20T05:16:31.221Z,64.89
2018-08-20T05:17:31.239Z,64.9
2018-08-20T05:18:31.214Z,64.84
2018-08-20T05:19:31.246Z,64.71
2018-08-20T05:20:31.221Z,64.41
2018-08-20T05:21:31.242Z,65.34
2018-08-20T05:22:31.251Z,64.72
2018-08-20T05:23:31.236Z,64.82
2018-08-20T05:24:31.294Z,64.96
2018-08-20T05:25:31.236Z,64.81
2018-08-20T05:26:31.265Z,64.62
2018-08-20T05:27:31.214Z,65.02
2018-08-20T05:28:31.262Z,65.71
2018-08-20T05:29:31.336Z,65.21
2018-08-20T05:30:31.219Z,65.3
2018-08-20T05:31:31.235Z,65.8
2018-08-20T05:32:31.235Z,66.19
2018-08-20T05:33:31.240Z,65.78
2018-08-20T05:34:31.243Z,65.21
2018-08-20T05:35:31.205Z,66.1
2018-08-20T05:36:31.268Z,65.3
2018-08-20T05:37:31.187Z,65.74
2018-08-20T05:38:31.414Z,65
2018-08-20T05:39:31.643Z,65.42
2018-08-20T05:40:31.223Z,64.73
2018-08-20T05:41:31.295Z,64.97
2018-08-20T05:42:31.256Z,64.98
2018-08-20T05:43:31.310Z,64.62
2018-08-20T05:44:31.621Z,65.81
2018-08-20T05:45:31.235Z,65.77
2018-08-20T05:46:31.334Z,66.13
2018-08-20T05:47:31.239Z,65.36
2018-08-20T05:48:31.301Z,64.84
2018-08-20T05:49:31.370Z,65.43
2018-08-20T05:50:31.633Z,65.07
2018-08-20T05:51:31.231Z,65.47
2018-08-20T05:52:31.367Z,65.57
2018-08-20T05:53:31.229Z,65.82
2018-08-20T05:54:31.372Z,65.03
2018-08-20T05:55:31.211Z,65.63
2018-08-20T05:56:31.333Z,65.76
2018-08-20T05:57:31.301Z,66.12
2018-08-20T05:58:31.355Z,65.76
2018-08-20T05:59:31.579Z,65.32
2018-08-20T06:00:31.203Z,65.16
2018-08-20T06:01:31.221Z,65.66
2018-08-20T06:02:31.358Z,65.36
2018-08-20T06:03:31.200Z,65.46
2018-08-20T06:04:31.245Z,66.21
2018-08-20T06:05:32.171Z,66.05
2018-08-20T06:06:31.293Z,65.33
2018-08-20T06:07:31.218Z,65
2018-08-20T06:08:31.211Z,65.81
2018-08-20T06:09:31.329Z,65.53
2018-08-20T06:10:31.326Z,65.31
2018-08-20T06:11:31.666Z,65.81
2018-08-20T06:12:31.228Z,65.64
2018-08-20T06:13:31.378Z,65.75
2018-08-20T06:14:31.226Z,66.08
2018-08-20T06:15:31.195Z,66.03
2018-08-20T06:16:31.252Z,65.76
2018-08-20T06:17:31.223Z,65.69
2018-08-20T06:18:31.242Z,65.74
2018-08-20T06:19:31.234Z,65.39
2018-08-20T06:20:31.257Z,65.58
2018-08-20T06:21:31.351Z,65.67
2018-08-20T06:22:31.430Z,65.64
2018-08-20T06:23:31.205Z,65.41
2018-08-20T06:24:31.207Z,65.2
2018-08-20T06:25:31.302Z,65.35
2018-08-20T06:26:31.194Z,65.5
2018-08-20T06:27:31.190Z,65.21
2018-08-20T06:28:31.310Z,65.47
2018-08-20T06:29:31.200Z,65.19
2018-08-20T06:30:31.204Z,65.36
2018-08-20T06:31:31.605Z,64.95
2018-08-20T06:32:31.197Z,65.45
2018-08-20T06:33:31.205Z,65.4
2018-08-20T06:34:31.230Z,64.84
2018-08-20T06:35:31.237Z,64.87
2018-08-20T06:36:31.267Z,65.48
2018-08-20T06:37:31.195Z,65.03
2018-08-20T06:38:31.191Z,64.47
2018-08-20T06:39:31.196Z,64.68
2018-08-20T06:40:31.203Z,64.91
2018-08-20T06:41:31.314Z,64.7
2018-08-20T06:42:31.237Z,64.93
2018-08-20T06:43:31.230Z,64.58
2018-08-20T06:44:31.230Z,64.72
2018-08-20T06:45:34.106Z,64.44
2018-08-20T06:46:31.235Z,64.22
2018-08-20T06:47:31.225Z,64.77
2018-08-20T06:48:32.022Z,64.93
2018-08-20T06:49:31.201Z,64.82
2018-08-20T06:50:31.209Z,64.71
2018-08-20T06:51:31.214Z,64.86
2018-08-20T06:52:31.277Z,64.43
2018-08-20T06:53:31.310Z,64.38
2018-08-20T06:54:31.324Z,64.16
2018-08-20T06:55:31.227Z,64.17
2018-08-20T06:56:31.235Z,64.55
2018-08-20T06:57:31.414Z,64.77
2018-08-20T06:58:31.213Z,64.27
2018-08-20T06:59:31.277Z,64.12
2018-08-20T07:00:31.189Z,64.4
2018-08-20T07:01:31.252Z,64.39
2018-08-20T07:02:31.279Z,63.83
2018-08-20T07:03:31.190Z,63.55
2018-08-20T07:04:31.198Z,63.91
2018-08-20T07:05:31.222Z,64.05
2018-08-20T07:06:31.250Z,63.93
2018-08-20T07:07:31.267Z,63.86
2018-08-20T07:08:31.330Z,64.28
2018-08-20T07:09:31.202Z,64.11
2018-08-20T07:10:31.346Z,63.86
2018-08-20T07:11:31.279Z,63.62
2018-08-20T07:12:31.397Z,63.67
2018-08-20T07:13:31.248Z,63.68
2018-08-20T07:14:31.328Z,63.74
2018-08-20T07:15:31.242Z,63.97
2018-08-20T07:16:31.242Z,63.78
2018-08-20T07:17:31.533Z,63.34
2018-08-20T07:18:31.517Z,63.68
2018-08-20T07:19:31.242Z,63.18
2018-08-20T07:20:31.216Z,63.14
2018-08-20T07:21:31.325Z,62.95
2018-08-20T07:22:31.269Z,63.02
2018-08-20T07:23:31.552Z,63.09
2018-08-20T07:24:32.043Z,63.32
2018-08-20T07:25:31.201Z,63.38
2018-08-20T07:26:31.347Z,62.94
2018-08-20T07:27:31.184Z,62.75
2018-08-20T07:28:31.190Z,62.82
2018-08-20T07:29:31.201Z,62.91
2018-08-20T07:30:31.182Z,63.01
2018-08-20T07:31:31.254Z,62.74
2018-08-20T07:32:31.180Z,63.12
2018-08-20T07:33:31.424Z,63.39
2018-08-20T07:34:31.174Z,62.87
2018-08-20T07:35:31.410Z,62.5
2018-08-20T07:36:31.194Z,62.73
2018-08-20T07:37:31.222Z,62.48
2018-08-20T07:38:31.375Z,62.39
2018-08-20T07:39:31.311Z,62.04
2018-08-20T07:40:31.414Z,62.32
2018-08-20T07:41:31.224Z,62.34
2018-08-20T07:42:31.280Z,62.52
2018-08-20T07:43:31.186Z,62.21
2018-08-20T07:44:31.204Z,62.06
2018-08-20T07:45:31.351Z,61.82
2018-08-20T07:46:31.276Z,61.52
2018-08-20T07:47:31.221Z,61.35
2018-08-20T07:48:31.177Z,61.08
2018-08-20T07:49:31.192Z,60.96
2018-08-20T07:50:31.211Z,61.24
2018-08-20T07:51:31.201Z,61.54
2018-08-20T07:52:31.192Z,61.47
2018-08-20T07:53:31.180Z,62.08
2018-08-20T07:54:31.174Z,61.75
2018-08-20T07:55:31.248Z,61.53
2018-08-20T07:56:31.183Z,60.96
2018-08-20T07:57:31.226Z,61.11
2018-08-20T07:58:31.258Z,60.5
2018-08-20T07:59:31.180Z,60.51
2018-08-20T08:00:31.200Z,60.54
2018-08-20T08:01:31.199Z,60.38
2018-08-20T08:02:31.228Z,60.33
2018-08-20T08:03:31.171Z,60.22
2018-08-20T08:04:31.196Z,60.47
2018-08-20T08:05:31.217Z,60.64
2018-08-20T08:06:31.203Z,60.7
2018-08-20T08:07:31.171Z,60.31
2018-08-20T08:08:31.183Z,59.96
2018-08-20T08:09:31.251Z,60.02
2018-08-20T08:10:31.213Z,59.94
2018-08-20T08:11:31.249Z,60.17
2018-08-20T08:12:31.166Z,60.11
2018-08-20T08:13:31.254Z,59.88
2018-08-20T08:14:31.176Z,59.54
2018-08-20T08:15:31.217Z,59.18
2018-08-20T08:16:31.205Z,59.44
2018-08-20T08:17:31.401Z,59.92
2018-08-20T08:18:31.200Z,60.16
2018-08-20T08:19:31.670Z,59.87
2018-08-20T08:20:31.199Z,58.89
2018-08-20T08:21:31.242Z,59.24
2018-08-20T08:22:31.232Z,59.75
2018-08-20T08:23:31.175Z,59.62
2018-08-20T08:24:31.190Z,59.33
2018-08-20T08:25:31.301Z,58.98
2018-08-20T08:26:31.259Z,58.74
2018-08-20T08:27:31.212Z,58.54
2018-08-20T08:28:31.189Z,58.5
2018-08-20T08:29:31.686Z,58.02
2018-08-20T08:30:31.240Z,58.39
2018-08-20T08:31:31.186Z,58.35
2018-08-20T08:32:31.297Z,57.99
2018-08-20T08:33:31.178Z,58.19
2018-08-20T08:34:31.313Z,57.78
2018-08-20T08:35:31.216Z,57.51
2018-08-20T08:36:31.325Z,57.58
2018-08-20T08:37:31.175Z,57.99
2018-08-20T08:38:31.181Z,57.65
2018-08-20T08:39:31.823Z,57.96
2018-08-20T08:40:31.194Z,57.67
2018-08-20T08:41:31.157Z,57.47
2018-08-20T08:42:31.245Z,58
2018-08-20T08:43:31.188Z,58.05
2018-08-20T08:44:31.197Z,57.42
2018-08-20T08:45:31.152Z,57.84
2018-08-20T08:46:31.167Z,57.68
2018-08-20T08:47:31.157Z,57.57
2018-08-20T08:48:31.383Z,57.9
2018-08-20T08:49:31.664Z,57.64
2018-08-20T08:50:31.181Z,57.42
2018-08-20T08:51:31.168Z,57.52
2018-08-20T08:52:31.186Z,56.96
2018-08-20T08:53:31.228Z,56.77
2018-08-20T08:54:31.157Z,56.92
2018-08-20T08:55:31.266Z,56.96
2018-08-20T08:56:31.260Z,56.63
2018-08-20T08:57:31.166Z,56.21
2018-08-20T08:58:31.339Z,56.2
2018-08-20T08:59:31.619Z,56.48
2018-08-20T09:00:31.177Z,56.29
2018-08-20T09:01:31.224Z,56.65
2018-08-20T09:02:31.191Z,55.8
2018-08-20T09:03:31.219Z,55.51
2018-08-20T09:04:31.274Z,55.29
2018-08-20T09:05:31.266Z,55.25
2018-08-20T09:06:31.187Z,55.92
2018-08-20T09:07:31.171Z,55.6
2018-08-20T09:08:31.161Z,54.93
2018-08-20T09:09:31.588Z,55.14
2018-08-20T09:10:31.167Z,54.01
2018-08-20T09:11:31.194Z,54.36
2018-08-20T09:12:31.207Z,54.51
2018-08-20T09:13:31.151Z,54.25
2018-08-20T09:14:31.156Z,54.24
2018-08-20T09:15:31.146Z,53.97
2018-08-20T09:16:31.184Z,54.19
2018-08-20T09:17:31.147Z,54.47
2018-08-20T09:18:31.188Z,54.05
2018-08-20T09:19:31.664Z,54.22
2018-08-20T09:20:31.189Z,53.76
2018-08-20T09:21:31.180Z,53.43
2018-08-20T09:22:31.545Z,53.42
2018-08-20T09:23:31.164Z,54.08
2018-08-20T09:24:31.158Z,54.26
2018-08-20T09:25:31.161Z,53.6
2018-08-20T09:26:31.169Z,53.67
2018-08-20T09:27:31.145Z,54.18
2018-08-20T09:28:31.229Z,53.34
2018-08-20T09:29:31.648Z,53.04
2018-08-20T09:30:31.184Z,53.58
2018-08-20T09:31:31.284Z,52.99
2018-08-20T09:32:31.180Z,52.75
2018-08-20T09:33:31.219Z,52.75
2018-08-20T09:34:31.277Z,53.13
2018-08-20T09:35:31.264Z,52.78
2018-08-20T09:36:31.312Z,52.53
2018-08-20T09:37:31.189Z,52.13
2018-08-20T09:38:31.146Z,52.49
2018-08-20T09:39:31.615Z,52.01
2018-08-20T09:40:31.155Z,52.36
2018-08-20T09:41:31.221Z,52.25
2018-08-20T09:42:31.134Z,52.38
2018-08-20T09:43:31.336Z,52.73
2018-08-20T09:44:31.163Z,52.89
2018-08-20T09:45:31.199Z,52.58
2018-08-20T09:46:31.255Z,52.11
2018-08-20T09:47:31.146Z,52.13
2018-08-20T09:48:31.432Z,51.99
2018-08-20T09:49:31.655Z,51.87
2018-08-20T09:50:31.157Z,51.26
2018-08-20T09:51:31.295Z,50.82
2018-08-20T09:52:31.252Z,50.34
2018-08-20T09:53:31.262Z,50.81
2018-08-20T09:54:31.164Z,50.98
2018-08-20T09:55:31.213Z,51.1
2018-08-20T09:56:31.883Z,51.36
2018-08-20T09:57:31.152Z,50.74
2018-08-20T09:58:31.283Z,51.08
2018-08-20T09:59:31.675Z,51.3
2018-08-20T10:00:31.387Z,50.85
2018-08-20T10:01:31.221Z,51.01
2018-08-20T10:02:31.149Z,50.46
2018-08-20T10:03:31.161Z,50.54
2018-08-20T10:04:31.198Z,50.63
2018-08-20T10:05:31.185Z,50.47
2018-08-20T10:06:31.231Z,50.48
2018-08-20T10:07:31.333Z,50.13
2018-08-20T10:08:31.313Z,50.14
2018-08-20T10:09:31.312Z,50.08
2018-08-20T10:10:31.776Z,50.14
2018-08-20T10:11:31.188Z,50.13
2018-08-20T10:12:31.176Z,50.31
2018-08-20T10:13:31.585Z,50.15
2018-08-20T10:14:31.147Z,50.08
2018-08-20T10:15:31.194Z,49.58
2018-08-20T10:16:31.181Z,49.71
2018-08-20T10:17:31.192Z,49.59
2018-08-20T10:18:31.359Z,49.79
2018-08-20T10:19:31.728Z,49.69
2018-08-20T10:20:31.474Z,49.93
2018-08-20T10:21:31.269Z,49.55
2018-08-20T10:22:31.760Z,49.5
2018-08-20T10:23:33.029Z,49.52
2018-08-20T10:24:31.200Z,49.21
2018-08-20T10:25:31.182Z,49.3
2018-08-20T10:26:31.333Z,49.51
2018-08-20T10:27:31.134Z,49.31
2018-08-20T10:28:31.152Z,49.23
2018-08-20T10:29:31.621Z,49.57
2018-08-20T10:30:31.601Z,48.87
2018-08-20T10:31:31.256Z,49.24
2018-08-20T10:32:31.622Z,48.71
2018-08-20T10:33:31.337Z,48.78
2018-08-20T10:34:31.149Z,48.45
2018-08-20T10:35:31.168Z,48.35
2018-08-20T10:36:31.172Z,48.83
2018-08-20T10:37:31.233Z,48.43
2018-08-20T10:38:31.189Z,48.28
2018-08-20T10:39:31.581Z,48.56
2018-08-20T10:40:31.267Z,48.54
2018-08-20T10:41:31.142Z,48.7
2018-08-20T10:42:31.396Z,48.58
2018-08-20T10:43:31.275Z,48.12
2018-08-20T10:44:31.129Z,47.99
2018-08-20T10:45:31.380Z,48.51
2018-08-20T10:46:31.143Z,48.17
2018-08-20T10:47:32.175Z,48.53
2018-08-20T10:48:31.165Z,48.93
2018-08-20T10:49:31.590Z,49.1
2018-08-20T10:50:31.259Z,48.55
2018-08-20T10:51:31.139Z,48.81
2018-08-20T10:52:31.194Z,49.17
2018-08-20T10:53:31.370Z,49.19
2018-08-20T10:54:31.129Z,48.5
2018-08-20T10:55:31.163Z,48.66
2018-08-20T10:56:31.197Z,48.41
2018-08-20T10:57:31.184Z,48.69
2018-08-20T10:58:31.260Z,48.69
2018-08-20T10:59:31.828Z,48.45
2018-08-20T11:00:31.149Z,48.45
2018-08-20T11:01:31.722Z,48.93
2018-08-20T11:02:31.162Z,48.92
2018-08-20T11:03:31.268Z,48.71
2018-08-20T11:04:31.739Z,48.81
2018-08-20T11:05:31.167Z,48.86
2018-08-20T11:06:31.186Z,48.1
2018-08-20T11:07:31.175Z,47.95
2018-08-20T11:08:31.227Z,48.21
2018-08-20T11:09:31.166Z,48.19
2018-08-20T11:10:31.193Z,48.48
2018-08-20T11:11:31.126Z,48.45
2018-08-20T11:12:31.793Z,48.58
2018-08-20T11:13:31.302Z,48.21
2018-08-20T11:14:31.297Z,48.02
2018-08-20T11:15:31.199Z,48.27
2018-08-20T11:16:31.143Z,47.76
2018-08-20T11:17:31.935Z,48.32
2018-08-20T11:18:31.279Z,47.69
2018-08-20T11:19:31.678Z,47.43
2018-08-20T11:20:31.156Z,47.46
2018-08-20T11:21:31.163Z,47.84
2018-08-20T11:22:31.569Z,47.46
2018-08-20T11:23:31.144Z,47.42
2018-08-20T11:24:31.168Z,47.6
2018-08-20T11:25:31.153Z,47.74
2018-08-20T11:26:31.126Z,47.67
2018-08-20T11:27:31.254Z,47.59
2018-08-20T11:28:31.181Z,47.93
2018-08-20T11:29:31.649Z,47.81
2018-08-20T11:30:31.148Z,47.82
2018-08-20T11:31:31.209Z,47.8
2018-08-20T11:32:31.126Z,47.91
2018-08-20T11:33:31.136Z,47.58
2018-08-20T11:34:31.264Z,47.59
2018-08-20T11:35:31.214Z,47.15
2018-08-20T11:36:31.256Z,47.11
2018-08-20T11:37:31.166Z,47.3
2018-08-20T11:38:31.132Z,47.23
2018-08-20T11:39:31.634Z,47.4
2018-08-20T11:40:31.127Z,47.09
2018-08-20T11:41:31.145Z,47.15
2018-08-20T11:42:31.187Z,47.38
2018-08-20T11:43:31.418Z,47.58
2018-08-20T11:44:31.164Z,47.87
2018-08-20T11:45:31.340Z,47.23
2018-08-20T11:46:31.128Z,47.31
2018-08-20T11:47:31.198Z,47.19
2018-08-20T11:48:31.191Z,47.37
2018-08-20T11:49:31.595Z,47.23
2018-08-20T11:50:31.141Z,47.06
2018-08-20T11:51:31.165Z,47.38
2018-08-20T11:52:31.188Z,47.28
2018-08-20T11:53:31.151Z,47.15
2018-08-20T11:54:31.219Z,47.29
2018-08-20T11:55:31.719Z,47.49
2018-08-20T11:56:31.289Z,47.38
2018-08-20T11:57:31.195Z,47.32
2018-08-20T11:58:31.187Z,47.24
2018-08-20T11:59:31.690Z,47.24
2018-08-20T12:00:31.429Z,47.54
2018-08-20T12:01:31.127Z,47.4
2018-08-20T12:02:31.241Z,47.41
2018-08-20T12:03:31.146Z,47.69
2018-08-20T12:04:31.186Z,47.67
2018-08-20T12:05:31.134Z,48.06
2018-08-20T12:06:31.155Z,47.95
2018-08-20T12:07:31.289Z,47.92
2018-08-20T12:08:31.144Z,47.91
2018-08-20T12:09:31.631Z,47.57
2018-08-20T12:10:31.198Z,47.87
2018-08-20T12:11:31.171Z,47.99
2018-08-20T12:12:31.211Z,47.84
2018-08-20T12:13:31.197Z,47.8
2018-08-20T12:14:32.042Z,47.67
2018-08-20T12:15:31.233Z,47.73
2018-08-20T12:16:31.346Z,47.4
2018-08-20T12:17:31.272Z,47.94
2018-08-20T12:18:31.316Z,48
2018-08-20T12:19:31.676Z,47.96
2018-08-20T12:20:31.254Z,48.1
2018-08-20T12:21:31.155Z,47.95
2018-08-20T12:22:31.189Z,47.54
2018-08-20T12:23:31.157Z,47.97
2018-08-20T12:24:31.112Z,47.89
2018-08-20T12:25:31.376Z,48.29
2018-08-20T12:26:31.148Z,47.97
2018-08-20T12:27:31.186Z,47.98
2018-08-20T12:28:31.262Z,47.84
2018-08-20T12:29:31.135Z,47.84
2018-08-20T12:30:31.308Z,47.74
2018-08-20T12:31:31.153Z,47.59
2018-08-20T12:32:31.147Z,47.68
2018-08-20T12:33:31.160Z,47.4
2018-08-20T12:34:31.167Z,47.51
2018-08-20T12:35:31.408Z,47.57
2018-08-20T12:36:31.112Z,47.66
2018-08-20T12:37:31.141Z,47.38
2018-08-20T12:38:31.139Z,47.94
2018-08-20T12:39:32.512Z,47.78
2018-08-20T12:40:31.222Z,47.77
2018-08-20T12:41:31.155Z,47.77
2018-08-20T12:42:31.467Z,47.83
2018-08-20T12:43:31.131Z,47.72
2018-08-20T12:44:31.141Z,47.83
2018-08-20T12:45:31.124Z,47.59
2018-08-20T12:46:31.140Z,47.92
2018-08-20T12:47:31.724Z,48.12
2018-08-20T12:48:31.166Z,47.9
2018-08-20T12:49:31.102Z,47.99
2018-08-20T12:50:31.133Z,47.61
2018-08-20T12:51:31.157Z,47.81
2018-08-20T12:52:31.132Z,47.57
2018-08-20T12:53:31.284Z,47.76
2018-08-20T12:54:31.152Z,47.62
2018-08-20T12:55:31.341Z,47.39